createdAt,value
2023-05-05T00:00:44.804Z,11.24
2023-05-05T00:03:37.095Z,11.17
2023-05-05T00:06:29.452Z,11.12
2023-05-05T00:09:22.519Z,11.06
2023-05-05T00:12:14.571Z,11.00
2023-05-05T00:15:07.687Z,10.92
2023-05-05T00:17:59.716Z,10.88
2023-05-05T00:20:52.254Z,10.76
2023-05-05T00:23:44.232Z,10.70
2023-05-05T00:26:36.187Z,10.68
2023-05-05T00:29:17.160Z,10.64
2023-05-05T00:32:09.147Z,10.61
2023-05-05T00:35:01.315Z,10.54
2023-05-05T00:37:53.308Z,10.50
2023-05-05T00:40:45.368Z,10.45
2023-05-05T00:43:37.323Z,10.40
2023-05-05T00:46:31.717Z,10.40
2023-05-05T00:49:14.862Z,10.38
2023-05-05T00:52:07.799Z,10.34
2023-05-05T00:55:00.848Z,10.28
2023-05-05T00:57:53.414Z,10.25
2023-05-05T01:00:45.435Z,10.21
2023-05-05T01:03:38.280Z,10.19
2023-05-05T01:06:42.925Z,10.15
2023-05-05T01:09:39.439Z,10.14
2023-05-05T01:12:38.645Z,10.09
2023-05-05T01:15:35.193Z,10.01
2023-05-05T01:18:39.165Z,9.89
2023-05-05T01:21:37.144Z,9.79
2023-05-05T01:25:22.203Z,9.75
2023-05-05T01:28:41.119Z,9.64
2023-05-05T01:31:51.912Z,9.56
2023-05-05T01:34:57.342Z,9.54
2023-05-05T01:37:52.875Z,9.52
2023-05-05T01:40:49.228Z,9.51
2023-05-05T01:43:45.812Z,9.50
2023-05-05T01:46:39.291Z,9.47
2023-05-05T01:49:32.668Z,9.46
2023-05-05T01:52:25.292Z,9.42
2023-05-05T01:55:19.801Z,9.45
2023-05-05T01:58:13.364Z,9.46
2023-05-05T02:01:06.526Z,9.45
2023-05-05T02:03:51.056Z,9.42
2023-05-05T02:06:45.355Z,9.46
2023-05-05T02:09:39.859Z,9.50
2023-05-05T02:12:32.590Z,9.46
2023-05-05T02:15:26.408Z,9.43
2023-05-05T02:18:18.979Z,9.38
2023-05-05T02:21:11.168Z,9.37
2023-05-05T02:24:04.015Z,9.37
2023-05-05T02:26:58.611Z,9.36
2023-05-05T02:29:52.705Z,9.32
2023-05-05T02:32:49.478Z,9.30
2023-05-05T02:35:46.951Z,9.27
2023-05-05T02:38:41.539Z,9.26
2023-05-05T02:41:37.707Z,9.25
2023-05-05T02:44:32.331Z,9.25
2023-05-05T02:47:24.514Z,9.25
2023-05-05T02:50:17.237Z,9.25
2023-05-05T02:53:09.328Z,9.22
2023-05-05T02:56:27.723Z,9.19
2023-05-05T02:59:27.794Z,9.15
2023-05-05T03:02:23.179Z,9.17
2023-05-05T03:05:20.734Z,9.17
2023-05-05T03:08:18.277Z,9.14
2023-05-05T03:11:17.211Z,9.13
2023-05-05T03:14:12.067Z,9.08
2023-05-05T03:17:05.361Z,9.02
2023-05-05T03:19:58.258Z,8.98
2023-05-05T03:22:51.582Z,8.93
2023-05-05T03:25:47.870Z,8.91
2023-05-05T03:28:39.881Z,8.89
2023-05-05T03:31:31.928Z,8.85
2023-05-05T03:34:11.925Z,8.82
2023-05-05T03:37:03.924Z,8.82
2023-05-05T03:39:55.875Z,8.82
2023-05-05T03:42:47.792Z,8.80
2023-05-05T03:45:39.784Z,8.82
2023-05-05T03:48:32.018Z,8.82
2023-05-05T03:51:23.972Z,8.83
2023-05-05T03:54:16.640Z,8.85
2023-05-05T03:57:08.698Z,8.90
2023-05-05T04:00:00.738Z,8.97
2023-05-05T04:02:52.804Z,9.03
2023-05-05T04:05:45.089Z,9.11
2023-05-05T04:08:37.126Z,9.19
2023-05-05T04:11:14.048Z,9.24
2023-05-05T04:14:06.050Z,9.30
2023-05-05T04:16:57.998Z,9.37
2023-05-05T04:19:50.098Z,9.40
2023-05-05T04:22:42.167Z,9.42
2023-05-05T04:25:34.322Z,9.47
2023-05-05T04:28:26.278Z,9.55
2023-05-05T04:31:18.327Z,9.62
2023-05-05T04:34:10.343Z,9.67
2023-05-05T04:37:02.313Z,9.73
2023-05-05T04:39:54.530Z,9.79
2023-05-05T04:42:46.517Z,9.86
2023-05-05T04:45:38.566Z,9.92
2023-05-05T04:48:30.567Z,9.98
2023-05-05T04:51:22.511Z,10.01
2023-05-05T04:54:14.802Z,10.11
2023-05-05T04:57:07.300Z,10.24
2023-05-05T04:59:59.842Z,10.38
2023-05-05T05:02:52.428Z,10.49
2023-05-05T05:05:44.523Z,10.62
2023-05-05T05:08:36.589Z,10.74
2023-05-05T05:11:28.646Z,10.81
2023-05-05T05:14:20.752Z,10.87
2023-05-05T05:17:12.739Z,10.94
2023-05-05T05:20:04.954Z,10.98
2023-05-05T05:22:57.394Z,11.04
2023-05-05T05:25:49.456Z,11.19
2023-05-05T05:28:42.545Z,11.43
2023-05-05T05:31:35.019Z,11.81
2023-05-05T05:34:27.082Z,12.27
2023-05-05T05:37:19.160Z,12.85
2023-05-05T05:40:12.505Z,13.52
2023-05-05T05:43:04.532Z,14.23
2023-05-05T05:45:56.580Z,14.86
2023-05-05T05:48:48.642Z,15.48
2023-05-05T05:51:40.701Z,16.13
2023-05-05T05:54:34.438Z,16.74
2023-05-05T05:57:27.770Z,17.34
2023-05-05T06:00:21.113Z,17.93
2023-05-05T06:03:13.184Z,18.59
2023-05-05T06:06:05.305Z,19.34
2023-05-05T06:08:57.269Z,19.81
2023-05-05T06:11:49.258Z,20.42
2023-05-05T06:14:41.244Z,21.16
2023-05-05T06:17:33.310Z,21.60
2023-05-05T06:20:25.307Z,22.16
2023-05-05T06:23:17.383Z,22.52
2023-05-05T06:26:09.350Z,23.15
2023-05-05T06:29:01.390Z,23.75
2023-05-05T06:31:53.365Z,24.50
2023-05-05T06:34:47.423Z,25.22
2023-05-05T06:37:28.873Z,25.87
2023-05-05T06:40:20.972Z,26.44
2023-05-05T06:43:13.164Z,26.94
2023-05-05T06:46:05.242Z,27.16
2023-05-05T06:48:57.249Z,27.08
2023-05-05T06:51:49.246Z,26.98
2023-05-05T06:54:41.243Z,26.56
2023-05-05T06:57:33.252Z,25.93
2023-05-05T07:00:25.990Z,25.38
2023-05-05T07:03:18.172Z,24.85
2023-05-05T07:06:10.356Z,24.28
2023-05-05T07:09:03.438Z,23.83
2023-05-05T07:11:55.467Z,23.16
2023-05-05T07:14:48.747Z,22.72
2023-05-05T07:17:40.809Z,22.36
2023-05-05T07:20:32.828Z,21.87
2023-05-05T07:23:24.853Z,21.40
2023-05-05T07:26:17.119Z,20.98
2023-05-05T07:29:09.307Z,20.63
2023-05-05T07:32:01.364Z,20.34
2023-05-05T07:34:53.526Z,19.97
2023-05-05T07:37:46.438Z,19.67
2023-05-05T07:40:38.492Z,19.47
2023-05-05T07:43:30.507Z,19.31
2023-05-05T07:46:22.672Z,19.27
2023-05-05T07:49:16.556Z,19.08
2023-05-05T07:52:08.598Z,19.03
2023-05-05T07:55:00.782Z,19.13
2023-05-05T07:57:52.755Z,19.07
2023-05-05T08:00:44.805Z,19.08
2023-05-05T08:03:36.906Z,19.06
2023-05-05T08:06:29.448Z,19.08
2023-05-05T08:09:21.436Z,19.14
2023-05-05T08:12:15.124Z,19.18
2023-05-05T08:15:08.191Z,19.20
2023-05-05T08:18:00.710Z,19.21
2023-05-05T08:20:53.137Z,19.36
2023-05-05T08:23:45.225Z,19.54
2023-05-05T08:26:37.311Z,19.67
2023-05-05T08:29:29.300Z,19.79
2023-05-05T08:32:21.324Z,19.71
2023-05-05T08:35:14.126Z,19.76
2023-05-05T08:38:06.176Z,19.72
2023-05-05T08:40:58.158Z,19.70
2023-05-05T08:43:50.584Z,19.75
2023-05-05T08:46:43.847Z,19.94
2023-05-05T08:49:45.540Z,20.19
2023-05-05T08:52:43.729Z,20.33
2023-05-05T08:55:30.445Z,20.55
2023-05-05T08:58:24.052Z,20.69
2023-05-05T09:01:17.878Z,20.77
2023-05-05T09:04:10.869Z,20.67
2023-05-05T09:07:03.348Z,20.81
2023-05-05T09:09:56.309Z,21.06
2023-05-05T09:12:50.107Z,21.45
2023-05-05T09:15:42.515Z,21.83
2023-05-05T09:18:34.585Z,21.92
2023-05-05T09:21:27.763Z,21.91
2023-05-05T09:24:19.794Z,22.06
2023-05-05T09:27:23.988Z,22.08
2023-05-05T09:30:18.304Z,21.93
2023-05-05T09:33:10.808Z,21.97
2023-05-05T09:36:02.813Z,22.20
2023-05-05T09:39:07.778Z,22.44
2023-05-05T09:41:59.836Z,22.54
2023-05-05T09:44:52.223Z,22.60
2023-05-05T09:47:45.575Z,22.80
2023-05-05T09:50:46.338Z,22.88
2023-05-05T09:53:42.953Z,23.04
2023-05-05T09:56:41.566Z,22.98
2023-05-05T09:59:33.620Z,22.85
2023-05-05T10:02:43.538Z,22.92
2023-05-05T10:05:47.438Z,23.03
2023-05-05T10:08:39.410Z,23.22
2023-05-05T10:11:35.624Z,23.14
2023-05-05T10:14:28.758Z,23.08
2023-05-05T10:17:23.417Z,23.08
2023-05-05T10:20:16.372Z,23.22
2023-05-05T10:23:11.907Z,23.36
2023-05-05T10:26:07.185Z,23.46
2023-05-05T10:29:01.347Z,23.10
2023-05-05T10:31:54.420Z,22.98
2023-05-05T10:34:55.245Z,22.95
2023-05-05T10:37:47.894Z,22.85
2023-05-05T10:40:43.749Z,22.57
2023-05-05T10:43:36.612Z,22.40
2023-05-05T10:46:29.851Z,22.34
2023-05-05T10:49:29.493Z,22.39
2023-05-05T10:52:30.316Z,22.60
2023-05-05T10:55:28.561Z,22.89
2023-05-05T11:01:34.624Z,23.76
2023-05-05T11:04:26.870Z,24.06
2023-05-05T11:07:27.002Z,24.02
2023-05-05T11:10:20.998Z,23.83
2023-05-05T11:13:22.894Z,23.68
2023-05-05T11:16:48.136Z,23.58
2023-05-05T11:19:51.668Z,23.70
2023-05-05T11:23:16.872Z,23.95
2023-05-05T11:26:09.021Z,24.10
2023-05-05T11:29:04.739Z,23.92
2023-05-05T11:32:13.710Z,23.57
2023-05-05T11:35:06.458Z,23.26
2023-05-05T11:38:08.001Z,22.96
2023-05-05T11:41:06.825Z,22.81
2023-05-05T11:44:13.302Z,22.77
2023-05-05T11:47:30.142Z,22.76
2023-05-05T11:50:23.364Z,22.91
2023-05-05T11:53:16.541Z,23.06
2023-05-05T11:56:15.397Z,23.23
2023-05-05T11:59:11.583Z,23.30
2023-05-05T12:02:03.983Z,23.25
2023-05-05T12:04:56.434Z,23.15
2023-05-05T12:07:48.862Z,23.05
2023-05-05T12:10:41.023Z,23.18
2023-05-05T12:13:33.124Z,23.31
2023-05-05T12:16:25.158Z,23.40
2023-05-05T12:19:17.147Z,23.38
2023-05-05T12:22:09.107Z,23.36
2023-05-05T12:25:03.539Z,23.16
2023-05-05T12:27:55.894Z,22.99
2023-05-05T12:31:08.165Z,22.84
2023-05-05T12:34:00.342Z,22.82
2023-05-05T12:36:52.525Z,22.83
2023-05-05T12:39:44.592Z,22.60
2023-05-05T12:42:42.435Z,22.37
2023-05-05T12:45:35.654Z,22.31
2023-05-05T12:48:27.775Z,22.25
2023-05-05T12:51:23.301Z,22.07
2023-05-05T12:54:15.401Z,21.93
2023-05-05T12:57:14.905Z,21.94
2023-05-05T13:00:17.999Z,21.68
2023-05-05T13:03:21.198Z,21.70
2023-05-05T13:06:31.769Z,21.79
2023-05-05T13:09:27.589Z,21.90
2023-05-05T13:12:21.375Z,21.97
2023-05-05T13:15:15.203Z,21.95
2023-05-05T13:18:07.528Z,21.93
2023-05-05T13:20:59.635Z,21.98
2023-05-05T13:23:31.646Z,22.04
2023-05-05T13:26:24.825Z,22.07
2023-05-05T13:29:17.484Z,22.01
2023-05-05T13:32:10.320Z,21.99
2023-05-05T13:35:02.341Z,21.95
2023-05-05T13:37:54.291Z,21.82
2023-05-05T13:40:46.485Z,21.63
2023-05-05T13:43:38.579Z,21.52
2023-05-05T13:46:30.846Z,21.47
2023-05-05T13:49:22.839Z,21.54
2023-05-05T13:52:14.937Z,21.61
2023-05-05T13:55:08.334Z,21.64
2023-05-05T13:58:00.584Z,21.65
2023-05-05T14:00:52.614Z,21.54
2023-05-05T14:03:44.691Z,21.52
2023-05-05T14:06:36.789Z,21.58
2023-05-05T14:09:16.991Z,21.50
2023-05-05T14:12:09.826Z,21.46
2023-05-05T14:15:01.885Z,21.48
2023-05-05T14:17:54.044Z,21.54
2023-05-05T14:20:46.113Z,21.59
2023-05-05T14:23:38.106Z,21.57
2023-05-05T14:26:30.203Z,21.56
2023-05-05T14:29:22.266Z,21.55
2023-05-05T14:32:14.400Z,21.56
2023-05-05T14:35:08.048Z,21.59
2023-05-05T14:38:00.241Z,21.59
2023-05-05T14:40:52.261Z,21.60
2023-05-05T14:43:44.225Z,21.61
2023-05-05T14:46:36.427Z,21.60
2023-05-05T14:49:28.504Z,21.59
2023-05-05T14:52:20.529Z,21.50
2023-05-05T14:55:12.864Z,21.36
2023-05-05T14:58:04.968Z,21.20
2023-05-05T15:00:56.966Z,21.12
2023-05-05T15:03:32.242Z,21.09
2023-05-05T15:06:24.311Z,21.04
2023-05-05T15:09:18.025Z,20.93
2023-05-05T15:12:10.135Z,20.84
2023-05-05T15:15:02.161Z,20.75
2023-05-05T15:17:54.215Z,20.64
2023-05-05T15:20:46.277Z,20.52
2023-05-05T15:23:38.346Z,20.46
2023-05-05T15:26:30.361Z,20.51
2023-05-05T15:29:22.392Z,20.57
2023-05-05T15:32:14.427Z,20.61
2023-05-05T15:35:07.155Z,20.57
2023-05-05T15:37:59.330Z,20.41
2023-05-05T15:40:52.014Z,20.34
2023-05-05T15:43:44.006Z,20.31
2023-05-05T15:46:36.152Z,20.30
2023-05-05T15:49:28.157Z,20.26
2023-05-05T15:52:20.138Z,20.15
2023-05-05T15:55:13.354Z,20.04
2023-05-05T15:58:05.307Z,19.98
2023-05-05T16:00:57.331Z,19.94
2023-05-05T16:03:49.297Z,19.93
2023-05-05T16:06:41.320Z,19.89
2023-05-05T16:09:33.352Z,19.81
2023-05-05T16:12:25.549Z,19.66
2023-05-05T16:15:17.715Z,19.52
2023-05-05T16:18:09.758Z,19.45
2023-05-05T16:21:02.618Z,19.41
2023-05-05T16:23:54.583Z,19.36
2023-05-05T16:26:46.815Z,19.33
2023-05-05T16:29:38.793Z,19.32
2023-05-05T16:32:30.856Z,19.34
2023-05-05T16:35:23.914Z,19.37
2023-05-05T16:38:16.641Z,19.36
2023-05-05T16:41:08.768Z,19.39
2023-05-05T16:44:01.089Z,19.43
2023-05-05T16:46:53.075Z,19.37
2023-05-05T16:49:45.024Z,19.31
2023-05-05T16:52:37.044Z,19.26
2023-05-05T16:55:29.060Z,19.25
2023-05-05T16:58:21.253Z,19.19
2023-05-05T17:01:13.270Z,19.15
2023-05-05T17:04:05.346Z,19.08
2023-05-05T17:06:57.973Z,19.00
2023-05-05T17:09:50.018Z,18.93
2023-05-05T17:12:42.095Z,18.87
2023-05-05T17:15:34.401Z,18.78
2023-05-05T17:18:26.368Z,18.67
2023-05-05T17:21:18.483Z,18.56
2023-05-05T17:24:11.436Z,18.47
2023-05-05T17:27:03.506Z,18.37
2023-05-05T17:29:56.238Z,18.32
2023-05-05T17:32:48.359Z,18.31
2023-05-05T17:35:41.190Z,18.26
2023-05-05T17:38:33.143Z,18.18
2023-05-05T17:41:25.811Z,18.09
2023-05-05T17:44:17.806Z,18.05
2023-05-05T17:47:10.514Z,18.02
2023-05-05T17:50:02.793Z,17.95
2023-05-05T17:52:54.741Z,17.86
2023-05-05T17:55:48.434Z,17.74
2023-05-05T17:58:40.407Z,17.65
2023-05-05T18:01:32.359Z,17.57
2023-05-05T18:04:24.375Z,17.48
2023-05-05T18:07:16.518Z,17.40
2023-05-05T18:10:10.632Z,17.34
2023-05-05T18:13:02.703Z,17.27
2023-05-05T18:15:54.754Z,17.19
2023-05-05T18:18:46.872Z,17.12
2023-05-05T18:21:38.838Z,17.03
2023-05-05T18:24:31.758Z,16.96
2023-05-05T18:27:23.713Z,16.89
2023-05-05T18:30:16.276Z,16.78
2023-05-05T18:33:08.295Z,16.70
2023-05-05T18:36:01.123Z,16.63
2023-05-05T18:38:35.807Z,16.57
2023-05-05T18:41:27.781Z,16.50
2023-05-05T18:44:20.846Z,16.44
2023-05-05T18:47:12.877Z,16.38
2023-05-05T18:50:05.399Z,16.34
2023-05-05T18:52:57.358Z,16.29
2023-05-05T18:55:49.978Z,16.23
2023-05-05T18:58:42.101Z,16.15
2023-05-05T19:01:34.191Z,16.10
2023-05-05T19:04:31.450Z,16.03
2023-05-05T19:07:34.351Z,15.98
2023-05-05T19:10:27.550Z,15.92
2023-05-05T19:13:19.643Z,15.88
2023-05-05T19:16:11.911Z,15.84
2023-05-05T19:19:04.251Z,15.81
2023-05-05T19:21:58.048Z,15.78
2023-05-05T19:24:50.124Z,15.74
2023-05-05T19:27:42.360Z,15.71
2023-05-05T19:30:34.544Z,15.69
2023-05-05T19:33:26.765Z,15.68
2023-05-05T19:36:19.589Z,15.67
2023-05-05T19:39:13.708Z,15.68
2023-05-05T19:42:08.382Z,15.68
2023-05-05T19:45:00.428Z,15.67
2023-05-05T19:47:32.515Z,15.68
2023-05-05T19:50:26.563Z,15.68
2023-05-05T19:53:19.278Z,15.67
2023-05-05T19:56:11.530Z,15.67
2023-05-05T19:59:06.246Z,15.64
2023-05-05T20:01:58.524Z,15.60
2023-05-05T20:04:50.976Z,15.56
2023-05-05T20:07:43.872Z,15.50
2023-05-05T20:10:36.648Z,15.41
2023-05-05T20:13:28.670Z,15.35
2023-05-05T20:16:21.501Z,15.26
2023-05-05T20:19:13.608Z,15.13
2023-05-05T20:22:05.618Z,15.02
2023-05-05T20:24:58.188Z,14.95
2023-05-05T20:27:50.170Z,14.86
2023-05-05T20:30:42.157Z,14.78
2023-05-05T20:33:34.249Z,14.74
2023-05-05T20:36:26.716Z,14.71
2023-05-05T20:39:17.252Z,14.67
2023-05-05T20:42:09.225Z,14.61
2023-05-05T20:45:03.008Z,14.56
2023-05-05T20:47:55.063Z,14.51
2023-05-05T20:50:47.040Z,14.47
2023-05-05T20:53:39.081Z,14.42
2023-05-05T20:56:31.092Z,14.40
2023-05-05T20:59:23.157Z,14.36
2023-05-05T21:02:15.195Z,14.34
2023-05-05T21:05:08.840Z,14.31
2023-05-05T21:08:01.455Z,14.26
2023-05-05T21:10:53.568Z,14.22
2023-05-05T21:13:45.597Z,14.19
2023-05-05T21:16:37.590Z,14.17
2023-05-05T21:19:12.279Z,14.14
2023-05-05T21:22:04.397Z,14.10
2023-05-05T21:25:09.018Z,14.06
2023-05-05T21:28:01.043Z,14.02
2023-05-05T21:33:48.339Z,13.94
2023-05-05T21:36:40.684Z,13.87
2023-05-05T21:39:33.256Z,13.84
2023-05-05T21:42:25.250Z,13.81
2023-05-05T21:45:14.701Z,13.76
2023-05-05T21:48:07.474Z,13.72
2023-05-05T21:50:59.643Z,13.66
2023-05-05T21:53:51.685Z,13.62
2023-05-05T21:56:43.726Z,13.59
2023-05-05T21:59:35.963Z,13.49
2023-05-05T22:02:28.104Z,13.43
2023-05-05T22:05:20.479Z,13.41
2023-05-05T22:08:12.512Z,13.37
2023-05-05T22:11:04.551Z,13.34
2023-05-05T22:13:56.972Z,13.31
2023-05-05T22:16:48.955Z,13.26
2023-05-05T22:19:41.010Z,13.22
2023-05-05T22:22:16.423Z,13.19
2023-05-05T22:25:10.202Z,13.17
2023-05-05T22:28:02.429Z,13.15
2023-05-05T22:30:54.563Z,13.09
2023-05-05T22:33:46.545Z,13.06
2023-05-05T22:36:38.700Z,13.02
2023-05-05T22:39:30.716Z,12.99
2023-05-05T22:42:22.844Z,12.96
2023-05-05T22:45:15.391Z,12.93
2023-05-05T22:48:08.136Z,12.86
2023-05-05T22:51:00.137Z,12.82
2023-05-05T22:53:52.294Z,12.80
2023-05-05T22:56:44.365Z,12.75
2023-05-05T22:59:36.330Z,12.68
2023-05-05T23:02:28.980Z,12.63
2023-05-05T23:05:21.235Z,12.60
2023-05-05T23:08:13.281Z,12.56
2023-05-05T23:11:05.545Z,12.51
2023-05-05T23:14:00.835Z,12.48
2023-05-05T23:16:52.899Z,12.45
2023-05-05T23:19:48.095Z,12.41
2023-05-05T23:22:40.122Z,12.39
2023-05-05T23:25:32.140Z,12.39
2023-05-05T23:28:24.261Z,12.35
2023-05-05T23:31:16.423Z,12.31
2023-05-05T23:34:08.422Z,12.26
2023-05-05T23:37:00.470Z,12.24
2023-05-05T23:39:52.461Z,12.20
2023-05-05T23:42:44.443Z,12.18
2023-05-05T23:45:36.469Z,12.13
2023-05-05T23:48:28.539Z,12.10
2023-05-05T23:51:20.578Z,12.06
2023-05-05T23:54:12.490Z,12.03
2023-05-05T23:57:04.528Z,11.96
2023-05-05T23:59:56.460Z,11.92
